CTSO2: Bird Creek At Catoosa

                                SHEF ID:       CTSO2     Bird Ck at State Highway 266 nea
STATION TYPE:
Regulating: Stage = 26.00, Flow = 20953

STAGE STAGE(2) RIV-FLOW WTR-TEMP DIS-OXY PH CONDUCT BAT-LOAD
ft ft cfs F mg/l su umho/cm volt
Ccp-Rev Ccp-Rev Ccp-Rev Ccp-Rev Ccp-Rev Ccp-Rev Ccp-Rev Ccp-Rev
(America/Chicago)
04/26 00:00 7.30 3.42 1985 67.32 7.38 7.63 271 12.31
04/26 01:00 7.19 3.42 1898 67.30 7.37 7.65 274 12.37
04/26 02:00 7.12 3.42 1841 67.26 7.32 7.67 277 12.34
04/26 03:00 7.03 3.43 1770 67.23 7.35 7.69 278 12.27
04/26 04:00 6.94 3.42 1698 67.19 7.38 7.66 264 12.13
04/26 05:00 6.86 3.42 1634 67.15 7.39 7.68 276 12.14
04/26 06:00 6.78 3.42 1571 67.17 7.41 7.78 265 12.02
04/26 07:00 6.71 3.42 1514 67.23 7.39 7.76 277 12.04
04/26 08:00 6.66 3.42 1474 67.41 7.37 7.78 273 12.14
04/26 09:00 6.63 3.42 1451 67.64 7.40 7.76 277 12.53
04/26 10:00 6.56 3.42 1395 67.95 7.46 7.76 273 12.96
04/26 11:00 6.53 3.42 1371 68.47 7.56 7.77 280 13.09
04/26 12:00 6.48 3.42 1331 68.95 7.48 7.77 287 13.04
04/26 13:00 6.48 3.42 1331 69.40 7.49 7.77 292 12.83
04/26 14:00 6.42 3.42 1284 69.76 7.42 7.75 293 12.74
04/26 15:00 6.39 3.42 1261 70.11 7.53 7.73 296 12.53
04/26 16:00 6.36 3.42 1236 70.21 7.58 7.76 294 12.35
04/26 17:00 6.30 3.42 1188 70.18 7.56 7.79 300 12.42
04/26 18:00 6.23 3.42 1134 70.07 7.60 7.77 306 12.40
04/26 19:00 6.17 3.42 1089 70.00 7.55 7.73 305 12.40
04/26 20:00 6.14 3.42 1066 69.98 7.53 7.75 304 12.18
04/26 21:00 6.12 3.42 1052 69.96 7.48 7.75 303 12.11
04/26 22:00 6.10 3.42 1037 69.96 7.53 7.77 303 12.10
04/26 23:00 ---- ---- ---- ---- ---- ---- ---- ----
Data processed at Mon 27Apr2026 04:21 GMT

NOTICE: If you are parsing this page

Please convert to using our Data API. Starting early 2026 we will be migrating to: https://water.usace.army.mil with modern pages rendered in JavaScript. When this migration completes you will no longer be able to scrape this page! CWMSDataAPI (CDA)

Timeseries IDs (TSIDs)

TSIDs used from left to right in the data table
CATB.Stage.Inst.1Hour.0.Ccp-Rev
CATB.Stage-Alt.Inst.1Hour.0.Ccp-Rev
CATB.Flow.Inst.1Hour.0.Ccp-Rev
CATB.Temp-Water.Inst.1Hour.0.Ccp-Rev
CATB.Conc-DO.Inst.1Hour.0.Ccp-Rev
CATB.pH.Inst.1Hour.0.Ccp-Rev
CATB.Cond-Water.Inst.1Hour.0.Ccp-Rev
CATB.Volt-Battery Load.Inst.1Hour.0.Ccp-Rev

                            

All information presented herein is the property of the government of the United States of America and may be revised or deleted at any time without prior notice. Dissemination of this information without the expressed written consent of the Public Affairs Office, Tulsa District U.S. Army Corps of Engineers is strictly prohibited. These data are gathered electronically and, as presented, have NOT undergone any form of quality control. These data are NOT guaranteed to be valid or correct.